sensor_id;sensor_type;location;lat;lon;timestamp;pressure;altitude;pressure_sealevel;temperature;humidity
73817;BME280;62146;53.232;-1.304;2023-05-01T00:01:28;100568.22;;;12.33;100.00
73817;BME280;62146;53.232;-1.304;2023-05-01T00:03:54;100570.88;;;12.33;100.00
73817;BME280;62146;53.232;-1.304;2023-05-01T00:06:21;100567.41;;;12.33;100.00
73817;BME280;62146;53.232;-1.304;2023-05-01T00:08:48;100570.38;;;12.36;100.00
73817;BME280;62146;53.232;-1.304;2023-05-01T00:11:15;100565.06;;;12.36;100.00
73817;BME280;62146;53.232;-1.304;2023-05-01T00:13:41;100557.34;;;12.35;100.00
73817;BME280;62146;53.232;-1.304;2023-05-01T00:16:09;100562.91;;;12.33;100.00
73817;BME280;62146;53.232;-1.304;2023-05-01T00:18:36;100552.78;;;12.31;100.00
73817;BME280;62146;53.232;-1.304;2023-05-01T00:21:03;100553.25;;;12.28;100.00
73817;BME280;62146;53.232;-1.304;2023-05-01T00:23:30;100552.47;;;12.27;100.00
73817;BME280;62146;53.232;-1.304;2023-05-01T00:25:56;100553.44;;;12.21;100.00
73817;BME280;62146;53.232;-1.304;2023-05-01T00:28:23;100557.94;;;12.21;100.00
73817;BME280;62146;53.232;-1.304;2023-05-01T00:30:49;100553.63;;;12.15;100.00
73817;BME280;62146;53.232;-1.304;2023-05-01T00:33:16;100543.47;;;12.12;100.00
73817;BME280;62146;53.232;-1.304;2023-05-01T00:35:43;100550.56;;;12.06;100.00
73817;BME280;62146;53.232;-1.304;2023-05-01T00:38:11;100554.03;;;12.07;100.00
73817;BME280;62146;53.232;-1.304;2023-05-01T00:40:44;100550.75;;;12.00;100.00
73817;BME280;62146;53.232;-1.304;2023-05-01T00:43:11;100551.25;;;11.97;100.00
73817;BME280;62146;53.232;-1.304;2023-05-01T00:45:42;100555.00;;;12.01;100.00
73817;BME280;62146;53.232;-1.304;2023-05-01T00:48:09;100546.56;;;12.04;100.00
73817;BME280;62146;53.232;-1.304;2023-05-01T00:50:37;100546.88;;;12.07;100.00
73817;BME280;62146;53.232;-1.304;2023-05-01T00:53:04;100539.69;;;12.08;100.00
73817;BME280;62146;53.232;-1.304;2023-05-01T00:55:31;100534.38;;;12.08;100.00
73817;BME280;62146;53.232;-1.304;2023-05-01T00:57:59;100539.13;;;12.06;100.00
73817;BME280;62146;53.232;-1.304;2023-05-01T01:00:26;100530.84;;;12.03;100.00
73817;BME280;62146;53.232;-1.304;2023-05-01T01:02:54;100531.09;;;12.01;100.00
73817;BME280;62146;53.232;-1.304;2023-05-01T01:05:23;100534.72;;;11.95;100.00
73817;BME280;62146;53.232;-1.304;2023-05-01T01:10:39;100532.66;;;11.81;100.00
73817;BME280;62146;53.232;-1.304;2023-05-01T01:13:19;100528.56;;;11.74;100.00
73817;BME280;62146;53.232;-1.304;2023-05-01T01:18:42;100512.47;;;11.64;100.00
73817;BME280;62146;53.232;-1.304;2023-05-01T01:21:22;100504.75;;;11.62;100.00
73817;BME280;62146;53.232;-1.304;2023-05-01T01:24:11;100506.50;;;11.57;100.00
73817;BME280;62146;53.232;-1.304;2023-05-01T01:27:04;100503.25;;;11.50;100.00
73817;BME280;62146;53.232;-1.304;2023-05-01T01:35:41;100495.22;;;11.34;100.00
73817;BME280;62146;53.232;-1.304;2023-05-01T01:39:12;100493.31;;;11.29;100.00
73817;BME280;62146;53.232;-1.304;2023-05-01T01:41:35;100487.94;;;11.24;100.00
73817;BME280;62146;53.232;-1.304;2023-05-01T01:44:11;100485.75;;;11.22;100.00
73817;BME280;62146;53.232;-1.304;2023-05-01T01:46:41;100485.56;;;11.12;100.00
73817;BME280;62146;53.232;-1.304;2023-05-01T01:49:14;100485.28;;;11.08;100.00
73817;BME280;62146;53.232;-1.304;2023-05-01T01:51:46;100482.84;;;11.07;100.00
73817;BME280;62146;53.232;-1.304;2023-05-01T01:54:15;100479.84;;;11.03;100.00
73817;BME280;62146;53.232;-1.304;2023-05-01T01:56:44;100489.66;;;11.03;100.00
73817;BME280;62146;53.232;-1.304;2023-05-01T01:59:13;100478.97;;;10.98;100.00
73817;BME280;62146;53.232;-1.304;2023-05-01T02:01:42;100482.69;;;10.97;100.00
73817;BME280;62146;53.232;-1.304;2023-05-01T02:04:10;100479.69;;;10.94;100.00
73817;BME280;62146;53.232;-1.304;2023-05-01T02:06:39;100484.44;;;10.92;100.00
73817;BME280;62146;53.232;-1.304;2023-05-01T02:09:07;100475.13;;;10.89;100.00
73817;BME280;62146;53.232;-1.304;2023-05-01T02:11:35;100475.66;;;10.91;100.00
73817;BME280;62146;53.232;-1.304;2023-05-01T02:14:04;100472.53;;;10.94;100.00
73817;BME280;62146;53.232;-1.304;2023-05-01T02:16:32;100468.50;;;10.92;100.00
73817;BME280;62146;53.232;-1.304;2023-05-01T02:19:02;100461.28;;;10.87;100.00
73817;BME280;62146;53.232;-1.304;2023-05-01T02:21:30;100469.22;;;10.87;100.00
73817;BME280;62146;53.232;-1.304;2023-05-01T02:23:59;100472.94;;;10.86;100.00
73817;BME280;62146;53.232;-1.304;2023-05-01T02:26:28;100466.59;;;10.87;100.00
73817;BME280;62146;53.232;-1.304;2023-05-01T02:28:55;100459.44;;;10.88;100.00
73817;BME280;62146;53.232;-1.304;2023-05-01T02:31:22;100458.06;;;10.85;100.00
73817;BME280;62146;53.232;-1.304;2023-05-01T02:33:48;100451.38;;;10.83;100.00
73817;BME280;62146;53.232;-1.304;2023-05-01T02:36:15;100451.72;;;10.86;100.00
73817;BME280;62146;53.232;-1.304;2023-05-01T02:38:42;100454.59;;;10.85;100.00
73817;BME280;62146;53.232;-1.304;2023-05-01T02:41:09;100449.53;;;10.83;100.00
73817;BME280;62146;53.232;-1.304;2023-05-01T02:43:38;100453.56;;;10.86;100.00
73817;BME280;62146;53.232;-1.304;2023-05-01T02:46:09;100442.16;;;10.85;100.00
73817;BME280;62146;53.232;-1.304;2023-05-01T02:48:39;100444.56;;;10.87;100.00
73817;BME280;62146;53.232;-1.304;2023-05-01T02:51:08;100443.97;;;10.85;100.00
73817;BME280;62146;53.232;-1.304;2023-05-01T02:53:36;100438.94;;;10.83;100.00
73817;BME280;62146;53.232;-1.304;2023-05-01T02:56:05;100446.31;;;10.81;100.00
73817;BME280;62146;53.232;-1.304;2023-05-01T02:58:33;100439.72;;;10.84;100.00
73817;BME280;62146;53.232;-1.304;2023-05-01T03:01:00;100441.81;;;10.82;100.00
73817;BME280;62146;53.232;-1.304;2023-05-01T03:03:26;100452.19;;;10.83;100.00
73817;BME280;62146;53.232;-1.304;2023-05-01T03:05:53;100453.78;;;10.84;100.00
73817;BME280;62146;53.232;-1.304;2023-05-01T03:08:19;100434.09;;;10.80;100.00
73817;BME280;62146;53.232;-1.304;2023-05-01T03:10:46;100438.94;;;10.83;100.00
73817;BME280;62146;53.232;-1.304;2023-05-01T03:13:13;100435.69;;;10.81;100.00
73817;BME280;62146;53.232;-1.304;2023-05-01T03:15:39;100438.13;;;10.83;100.00
73817;BME280;62146;53.232;-1.304;2023-05-01T03:18:06;100433.63;;;10.83;100.00
73817;BME280;62146;53.232;-1.304;2023-05-01T03:20:33;100432.03;;;10.82;100.00
73817;BME280;62146;53.232;-1.304;2023-05-01T03:23:00;100442.84;;;10.81;100.00
73817;BME280;62146;53.232;-1.304;2023-05-01T03:25:26;100438.13;;;10.83;100.00
73817;BME280;62146;53.232;-1.304;2023-05-01T03:27:53;100444.81;;;10.85;100.00
73817;BME280;62146;53.232;-1.304;2023-05-01T03:30:20;100452.78;;;10.85;100.00
73817;BME280;62146;53.232;-1.304;2023-05-01T03:32:47;100446.63;;;10.85;100.00
73817;BME280;62146;53.232;-1.304;2023-05-01T03:35:14;100452.78;;;10.85;100.00
73817;BME280;62146;53.232;-1.304;2023-05-01T03:37:40;100452.25;;;10.88;100.00
73817;BME280;62146;53.232;-1.304;2023-05-01T03:40:07;100453.31;;;10.87;100.00
73817;BME280;62146;53.232;-1.304;2023-05-01T03:42:34;100444.31;;;10.88;100.00
73817;BME280;62146;53.232;-1.304;2023-05-01T03:45:00;100452.25;;;10.88;100.00
73817;BME280;62146;53.232;-1.304;2023-05-01T03:47:27;100449.06;;;10.86;100.00
73817;BME280;62146;53.232;-1.304;2023-05-01T03:49:54;100455.97;;;10.87;100.00
73817;BME280;62146;53.232;-1.304;2023-05-01T03:52:21;100456.78;;;10.88;100.00
73817;BME280;62146;53.232;-1.304;2023-05-01T03:54:48;100459.69;;;10.86;100.00
73817;BME280;62146;53.232;-1.304;2023-05-01T03:57:15;100462.56;;;10.85;100.00
73817;BME280;62146;53.232;-1.304;2023-05-01T03:59:41;100458.53;;;10.82;100.00
73817;BME280;62146;53.232;-1.304;2023-05-01T04:02:09;100461.53;;;10.86;100.00
73817;BME280;62146;53.232;-1.304;2023-05-01T04:04:35;100462.31;;;10.86;100.00
73817;BME280;62146;53.232;-1.304;2023-05-01T04:07:03;100454.38;;;10.86;100.00
73817;BME280;62146;53.232;-1.304;2023-05-01T04:09:30;100451.94;;;10.85;100.00
73817;BME280;62146;53.232;-1.304;2023-05-01T04:11:57;100458.06;;;10.85;100.00
73817;BME280;62146;53.232;-1.304;2023-05-01T04:14:23;100461.53;;;10.86;100.00
73817;BME280;62146;53.232;-1.304;2023-05-01T04:16:50;100458.28;;;10.84;100.00
73817;BME280;62146;53.232;-1.304;2023-05-01T04:19:17;100464.97;;;10.86;100.00
73817;BME280;62146;53.232;-1.304;2023-05-01T04:21:43;100469.72;;;10.84;100.00
73817;BME280;62146;53.232;-1.304;2023-05-01T04:24:10;100470.28;;;10.86;100.00
73817;BME280;62146;53.232;-1.304;2023-05-01T04:26:36;100474.00;;;10.85;100.00
73817;BME280;62146;53.232;-1.304;2023-05-01T04:29:04;100466.84;;;10.86;100.00
73817;BME280;62146;53.232;-1.304;2023-05-01T04:31:30;100466.59;;;10.87;100.00
73817;BME280;62146;53.232;-1.304;2023-05-01T04:33:57;100467.16;;;10.89;100.00
73817;BME280;62146;53.232;-1.304;2023-05-01T04:36:24;100461.84;;;10.89;100.00
73817;BME280;62146;53.232;-1.304;2023-05-01T04:38:50;100458.63;;;10.87;100.00
73817;BME280;62146;53.232;-1.304;2023-05-01T04:41:17;100469.81;;;10.89;100.00
73817;BME280;62146;53.232;-1.304;2023-05-01T04:43:43;100465.53;;;10.88;100.00
73817;BME280;62146;53.232;-1.304;2023-05-01T04:46:10;100469.22;;;10.87;100.00
73817;BME280;62146;53.232;-1.304;2023-05-01T04:48:37;100468.19;;;10.88;100.00
73817;BME280;62146;53.232;-1.304;2023-05-01T04:51:03;100471.88;;;10.87;100.00
73817;BME280;62146;53.232;-1.304;2023-05-01T04:53:30;100475.13;;;10.89;100.00
73817;BME280;62146;53.232;-1.304;2023-05-01T04:55:57;100471.09;;;10.87;100.00
73817;BME280;62146;53.232;-1.304;2023-05-01T04:58:23;100485.72;;;10.89;100.00
73817;BME280;62146;53.232;-1.304;2023-05-01T05:00:50;100485.22;;;10.92;100.00
73817;BME280;62146;53.232;-1.304;2023-05-01T05:03:17;100484.22;;;10.93;100.00
73817;BME280;62146;53.232;-1.304;2023-05-01T05:05:45;100483.63;;;10.91;100.00
73817;BME280;62146;53.232;-1.304;2023-05-01T05:08:14;100470.94;;;10.93;100.00
73817;BME280;62146;53.232;-1.304;2023-05-01T05:10:40;100478.41;;;10.96;100.00
73817;BME280;62146;53.232;-1.304;2023-05-01T05:13:07;100488.00;;;10.97;100.00
73817;BME280;62146;53.232;-1.304;2023-05-01T05:15:35;100481.84;;;10.96;100.00
73817;BME280;62146;53.232;-1.304;2023-05-01T05:18:01;100485.09;;;10.98;100.00
73817;BME280;62146;53.232;-1.304;2023-05-01T05:20:28;100490.72;;;11.02;100.00
73817;BME280;62146;53.232;-1.304;2023-05-01T05:22:55;100487.59;;;11.05;100.00
73817;BME280;62146;53.232;-1.304;2023-05-01T05:25:21;100482.63;;;11.08;100.00
73817;BME280;62146;53.232;-1.304;2023-05-01T05:27:48;100474.94;;;11.12;100.00
73817;BME280;62146;53.232;-1.304;2023-05-01T05:30:17;100477.13;;;11.15;100.00
73817;BME280;62146;53.232;-1.304;2023-05-01T05:32:45;100478.50;;;11.17;100.00
73817;BME280;62146;53.232;-1.304;2023-05-01T05:35:12;100478.25;;;11.19;100.00
73817;BME280;62146;53.232;-1.304;2023-05-01T05:37:39;100482.53;;;11.20;100.00
73817;BME280;62146;53.232;-1.304;2023-05-01T05:40:06;100489.44;;;11.21;100.00
73817;BME280;62146;53.232;-1.304;2023-05-01T05:42:33;100492.91;;;11.21;100.00
73817;BME280;62146;53.232;-1.304;2023-05-01T05:44:59;100490.81;;;11.23;100.00
73817;BME280;62146;53.232;-1.304;2023-05-01T05:47:26;100490.56;;;11.24;100.00
73817;BME280;62146;53.232;-1.304;2023-05-01T05:49:52;100485.50;;;11.23;100.00
73817;BME280;62146;53.232;-1.304;2023-05-01T05:52:21;100492.19;;;11.25;100.00
73817;BME280;62146;53.232;-1.304;2023-05-01T05:54:47;100488.47;;;11.26;100.00
73817;BME280;62146;53.232;-1.304;2023-05-01T05:57:14;100480.28;;;11.28;100.00
73817;BME280;62146;53.232;-1.304;2023-05-01T05:59:41;100484.78;;;11.27;100.00
73817;BME280;62146;53.232;-1.304;2023-05-01T06:02:07;100492.50;;;11.29;100.00
73817;BME280;62146;53.232;-1.304;2023-05-01T06:04:34;100484.28;;;11.30;100.00
73817;BME280;62146;53.232;-1.304;2023-05-01T06:07:01;100490.72;;;11.34;100.00
73817;BME280;62146;53.232;-1.304;2023-05-01T06:09:27;100485.19;;;11.36;100.00
73817;BME280;62146;53.232;-1.304;2023-05-01T06:11:54;100493.72;;;11.38;100.00
73817;BME280;62146;53.232;-1.304;2023-05-01T06:14:21;100498.81;;;11.39;100.00
73817;BME280;62146;53.232;-1.304;2023-05-01T06:16:48;100496.22;;;11.44;100.00
73817;BME280;62146;53.232;-1.304;2023-05-01T06:19:14;100490.44;;;11.47;100.00
73817;BME280;62146;53.232;-1.304;2023-05-01T06:21:41;100490.75;;;11.51;100.00
73817;BME280;62146;53.232;-1.304;2023-05-01T06:24:07;100504.38;;;11.54;100.00
73817;BME280;62146;53.232;-1.304;2023-05-01T06:26:34;100500.97;;;11.58;100.00
73817;BME280;62146;53.232;-1.304;2023-05-01T06:29:00;100502.91;;;11.63;100.00
73817;BME280;62146;53.232;-1.304;2023-05-01T06:31:27;100503.22;;;11.66;100.00
73817;BME280;62146;53.232;-1.304;2023-05-01T06:33:54;100508.84;;;11.70;100.00
73817;BME280;62146;53.232;-1.304;2023-05-01T06:36:21;100502.81;;;11.74;100.00
73817;BME280;62146;53.232;-1.304;2023-05-01T06:38:47;100498.84;;;11.77;100.00
73817;BME280;62146;53.232;-1.304;2023-05-01T06:41:15;100498.13;;;11.81;100.00
73817;BME280;62146;53.232;-1.304;2023-05-01T06:43:42;100498.44;;;11.84;100.00
73817;BME280;62146;53.232;-1.304;2023-05-01T06:46:08;100499.56;;;11.88;100.00
73817;BME280;62146;53.232;-1.304;2023-05-01T06:48:35;100502.28;;;11.93;100.00
73817;BME280;62146;53.232;-1.304;2023-05-01T06:51:02;100501.28;;;11.99;100.00
73817;BME280;62146;53.232;-1.304;2023-05-01T06:53:28;100504.81;;;12.04;100.00
73817;BME280;62146;53.232;-1.304;2023-05-01T06:55:55;100511.00;;;12.10;100.00
73817;BME280;62146;53.232;-1.304;2023-05-01T06:58:22;100517.44;;;12.14;100.00
73817;BME280;62146;53.232;-1.304;2023-05-01T07:00:51;100509.53;;;12.19;100.00
73817;BME280;62146;53.232;-1.304;2023-05-01T07:03:18;100508.81;;;12.23;100.00
73817;BME280;62146;53.232;-1.304;2023-05-01T07:05:45;100515.22;;;12.27;100.00
73817;BME280;62146;53.232;-1.304;2023-05-01T07:08:12;100519.81;;;12.31;100.00
73817;BME280;62146;53.232;-1.304;2023-05-01T07:10:39;100519.06;;;12.36;100.00
73817;BME280;62146;53.232;-1.304;2023-05-01T07:13:08;100523.63;;;12.40;100.00
73817;BME280;62146;53.232;-1.304;2023-05-01T07:15:35;100525.31;;;12.46;100.00
73817;BME280;62146;53.232;-1.304;2023-05-01T07:18:01;100530.69;;;12.51;100.00
73817;BME280;62146;53.232;-1.304;2023-05-01T07:20:31;100537.69;;;12.57;100.00
73817;BME280;62146;53.232;-1.304;2023-05-01T07:22:58;100535.06;;;12.62;100.00
73817;BME280;62146;53.232;-1.304;2023-05-01T07:25:25;100537.78;;;12.67;100.00
73817;BME280;62146;53.232;-1.304;2023-05-01T07:27:51;100538.69;;;12.72;100.00
73817;BME280;62146;53.232;-1.304;2023-05-01T07:30:18;100540.34;;;12.78;100.00
73817;BME280;62146;53.232;-1.304;2023-05-01T07:32:45;100544.66;;;12.84;100.00
73817;BME280;62146;53.232;-1.304;2023-05-01T07:35:12;100542.06;;;12.89;100.00
73817;BME280;62146;53.232;-1.304;2023-05-01T07:37:38;100546.63;;;12.93;100.00
73817;BME280;62146;53.232;-1.304;2023-05-01T07:40:05;100539.50;;;12.99;100.00
73817;BME280;62146;53.232;-1.304;2023-05-01T07:42:32;100549.41;;;13.03;100.00
73817;BME280;62146;53.232;-1.304;2023-05-01T07:44:59;100543.03;;;13.09;100.00
73817;BME280;62146;53.232;-1.304;2023-05-01T07:47:25;100539.94;;;13.17;100.00
73817;BME280;62146;53.232;-1.304;2023-05-01T07:49:52;100547.19;;;13.21;100.00
73817;BME280;62146;53.232;-1.304;2023-05-01T07:52:19;100552.84;;;13.30;100.00
73817;BME280;62146;53.232;-1.304;2023-05-01T07:54:49;100547.28;;;13.36;100.00
73817;BME280;62146;53.232;-1.304;2023-05-01T07:57:17;100547.38;;;13.41;100.00
73817;BME280;62146;53.232;-1.304;2023-05-01T07:59:43;100554.09;;;13.48;100.00
73817;BME280;62146;53.232;-1.304;2023-05-01T08:02:10;100553.63;;;13.56;100.00
73817;BME280;62146;53.232;-1.304;2023-05-01T08:04:39;100550.97;;;13.61;100.00
73817;BME280;62146;53.232;-1.304;2023-05-01T08:07:07;100556.91;;;13.68;100.00
73817;BME280;62146;53.232;-1.304;2023-05-01T08:09:33;100567.59;;;13.73;100.00
73817;BME280;62146;53.232;-1.304;2023-05-01T08:12:00;100559.63;;;13.78;100.00
73817;BME280;62146;53.232;-1.304;2023-05-01T08:14:28;100557.81;;;13.83;100.00
73817;BME280;62146;53.232;-1.304;2023-05-01T08:16:55;100557.03;;;13.88;100.00
73817;BME280;62146;53.232;-1.304;2023-05-01T08:19:23;100558.69;;;13.93;100.00
73817;BME280;62146;53.232;-1.304;2023-05-01T08:21:50;100562.47;;;13.97;100.00
73817;BME280;62146;53.232;-1.304;2023-05-01T08:24:16;100558.25;;;14.01;100.00
73817;BME280;62146;53.232;-1.304;2023-05-01T08:26:43;100559.88;;;14.07;100.00
73817;BME280;62146;53.232;-1.304;2023-05-01T08:29:10;100558.84;;;14.13;100.00
73817;BME280;62146;53.232;-1.304;2023-05-01T08:31:37;100564.22;;;14.18;100.00
73817;BME280;62146;53.232;-1.304;2023-05-01T08:34:04;100564.78;;;14.25;100.00
73817;BME280;62146;53.232;-1.304;2023-05-01T08:36:31;100555.72;;;14.31;100.00
73817;BME280;62146;53.232;-1.304;2023-05-01T08:38:58;100567.78;;;14.38;100.00
73817;BME280;62146;53.232;-1.304;2023-05-01T08:41:26;100570.22;;;14.45;100.00
73817;BME280;62146;53.232;-1.304;2023-05-01T08:43:55;100562.78;;;14.51;100.00
73817;BME280;62146;53.232;-1.304;2023-05-01T08:46:37;100571.59;;;14.57;100.00
73817;BME280;62146;53.232;-1.304;2023-05-01T08:49:12;100569.50;;;14.64;100.00
73817;BME280;62146;53.232;-1.304;2023-05-01T08:51:41;100570.31;;;14.69;100.00
73817;BME280;62146;53.232;-1.304;2023-05-01T08:54:10;100563.94;;;14.75;100.00
73817;BME280;62146;53.232;-1.304;2023-05-01T08:56:37;100566.63;;;14.80;100.00
73817;BME280;62146;53.232;-1.304;2023-05-01T08:59:06;100568.25;;;14.86;100.00
73817;BME280;62146;53.232;-1.304;2023-05-01T09:01:35;100568.25;;;14.91;100.00
73817;BME280;62146;53.232;-1.304;2023-05-01T09:04:04;100568.81;;;14.93;100.00
73817;BME280;62146;53.232;-1.304;2023-05-01T09:06:32;100567.75;;;14.94;100.00
73817;BME280;62146;53.232;-1.304;2023-05-01T09:08:58;100569.06;;;14.96;100.00
73817;BME280;62146;53.232;-1.304;2023-05-01T09:11:26;100574.16;;;14.98;100.00
73817;BME280;62146;53.232;-1.304;2023-05-01T09:13:53;100582.69;;;14.99;100.00
73817;BME280;62146;53.232;-1.304;2023-05-01T09:16:22;100581.38;;;15.02;100.00
73817;BME280;62146;53.232;-1.304;2023-05-01T09:18:49;100578.44;;;15.03;100.00
73817;BME280;62146;53.232;-1.304;2023-05-01T09:21:16;100582.50;;;15.11;100.00
73817;BME280;62146;53.232;-1.304;2023-05-01T09:23:42;100580.66;;;15.21;100.00
73817;BME280;62146;53.232;-1.304;2023-05-01T09:26:09;100578.25;;;15.34;100.00
73817;BME280;62146;53.232;-1.304;2023-05-01T09:28:40;100574.53;;;15.50;100.00
73817;BME280;62146;53.232;-1.304;2023-05-01T09:34:04;100581.22;;;15.82;100.00
73817;BME280;62146;53.232;-1.304;2023-05-01T09:36:33;100582.81;;;15.98;100.00
73817;BME280;62146;53.232;-1.304;2023-05-01T09:39:00;100576.38;;;16.13;100.00
73817;BME280;62146;53.232;-1.304;2023-05-01T09:41:27;100590.81;;;16.32;100.00
73817;BME280;62146;53.232;-1.304;2023-05-01T09:43:56;100590.50;;;16.53;100.00
73817;BME280;62146;53.232;-1.304;2023-05-01T09:46:24;100590.66;;;16.76;100.00
73817;BME280;62146;53.232;-1.304;2023-05-01T09:49:00;100598.06;;;16.99;100.00
73817;BME280;62146;53.232;-1.304;2023-05-01T09:51:30;100582.94;;;17.22;100.00
73817;BME280;62146;53.232;-1.304;2023-05-01T09:53:58;100585.19;;;17.43;100.00
73817;BME280;62146;53.232;-1.304;2023-05-01T09:56:26;100585.88;;;17.64;100.00
73817;BME280;62146;53.232;-1.304;2023-05-01T09:58:54;100582.47;;;17.86;100.00
73817;BME280;62146;53.232;-1.304;2023-05-01T10:01:37;100590.06;;;18.07;100.00
73817;BME280;62146;53.232;-1.304;2023-05-01T10:04:05;100582.09;;;18.25;100.00
73817;BME280;62146;53.232;-1.304;2023-05-01T10:06:32;100582.97;;;18.44;100.00
73817;BME280;62146;53.232;-1.304;2023-05-01T10:08:58;100577.34;;;18.64;100.00
73817;BME280;62146;53.232;-1.304;2023-05-01T10:11:25;100575.78;;;18.81;100.00
73817;BME280;62146;53.232;-1.304;2023-05-01T10:14:06;100579.84;;;19.02;100.00
73817;BME280;62146;53.232;-1.304;2023-05-01T10:16:36;100583.13;;;19.17;100.00
73817;BME280;62146;53.232;-1.304;2023-05-01T10:19:03;100589.09;;;19.32;100.00
73817;BME280;62146;53.232;-1.304;2023-05-01T10:21:31;100587.56;;;19.44;100.00
73817;BME280;62146;53.232;-1.304;2023-05-01T10:24:01;100579.47;;;19.44;100.00
73817;BME280;62146;53.232;-1.304;2023-05-01T10:26:34;100591.94;;;19.04;100.00
73817;BME280;62146;53.232;-1.304;2023-05-01T10:29:02;100594.09;;;18.79;100.00
73817;BME280;62146;53.232;-1.304;2023-05-01T10:31:29;100591.91;;;18.58;100.00
73817;BME280;62146;53.232;-1.304;2023-05-01T10:33:58;100607.00;;;18.54;100.00
73817;BME280;62146;53.232;-1.304;2023-05-01T10:36:38;100596.31;;;18.49;100.00
73817;BME280;62146;53.232;-1.304;2023-05-01T10:39:05;100595.06;;;18.42;100.00
73817;BME280;62146;53.232;-1.304;2023-05-01T10:44:25;100592.69;;;18.40;100.00
73817;BME280;62146;53.232;-1.304;2023-05-01T10:46:53;100598.56;;;18.42;100.00
73817;BME280;62146;53.232;-1.304;2023-05-01T10:49:20;100601.31;;;18.37;100.00
73817;BME280;62146;53.232;-1.304;2023-05-01T10:54:28;100603.19;;;18.37;100.00
73817;BME280;62146;53.232;-1.304;2023-05-01T10:56:56;100605.94;;;18.32;100.00
73817;BME280;62146;53.232;-1.304;2023-05-01T10:59:24;100620.19;;;18.27;100.00
73817;BME280;62146;53.232;-1.304;2023-05-01T11:01:51;100619.50;;;18.17;100.00
73817;BME280;62146;53.232;-1.304;2023-05-01T11:07:14;100613.97;;;18.04;100.00
73817;BME280;62146;53.232;-1.304;2023-05-01T11:09:59;100623.69;;;18.00;100.00
73817;BME280;62146;53.232;-1.304;2023-05-01T11:12:49;100629.56;;;17.97;100.00
73817;BME280;62146;53.232;-1.304;2023-05-01T11:15:37;100625.84;;;17.93;100.00
73817;BME280;62146;53.232;-1.304;2023-05-01T11:18:05;100626.09;;;17.96;100.00
73817;BME280;62146;53.232;-1.304;2023-05-01T11:23:02;100618.34;;;17.95;100.00
73817;BME280;62146;53.232;-1.304;2023-05-01T11:25:29;100615.94;;;17.94;100.00
73817;BME280;62146;53.232;-1.304;2023-05-01T11:27:59;100618.34;;;17.95;100.00
73817;BME280;62146;53.232;-1.304;2023-05-01T11:30:39;100620.47;;;17.98;100.00
73817;BME280;62146;53.232;-1.304;2023-05-01T11:33:06;100622.28;;;18.07;100.00
73817;BME280;62146;53.232;-1.304;2023-05-01T11:35:37;100613.34;;;18.17;100.00
73817;BME280;62146;53.232;-1.304;2023-05-01T11:38:04;100618.13;;;18.20;100.00
73817;BME280;62146;53.232;-1.304;2023-05-01T11:40:32;100610.31;;;18.23;100.00
73817;BME280;62146;53.232;-1.304;2023-05-01T11:45:26;100632.63;;;18.19;100.00
73817;BME280;62146;53.232;-1.304;2023-05-01T11:47:52;100636.19;;;18.14;100.00
73817;BME280;62146;53.232;-1.304;2023-05-01T11:50:19;100635.69;;;18.07;100.00
73817;BME280;62146;53.232;-1.304;2023-05-01T11:52:49;100633.31;;;18.01;100.00
73817;BME280;62146;53.232;-1.304;2023-05-01T11:55:19;100636.00;;;18.01;100.00
73817;BME280;62146;53.232;-1.304;2023-05-01T11:57:51;100634.72;;;17.94;100.00
73817;BME280;62146;53.232;-1.304;2023-05-01T12:00:36;100638.81;;;17.86;100.00
73817;BME280;62146;53.232;-1.304;2023-05-01T12:05:33;100636.69;;;17.83;100.00
73817;BME280;62146;53.232;-1.304;2023-05-01T12:08:21;100639.88;;;17.85;100.00
73817;BME280;62146;53.232;-1.304;2023-05-01T12:10:53;100643.34;;;17.86;100.00
73817;BME280;62146;53.232;-1.304;2023-05-01T12:13:22;100641.44;;;17.91;100.00
73817;BME280;62146;53.232;-1.304;2023-05-01T12:15:51;100631.97;;;18.03;100.00
73817;BME280;62146;53.232;-1.304;2023-05-01T12:18:18;100636.22;;;18.09;100.00
73817;BME280;62146;53.232;-1.304;2023-05-01T12:20:51;100638.56;;;18.16;100.00
73817;BME280;62146;53.232;-1.304;2023-05-01T12:23:28;100645.38;;;18.36;100.00
73817;BME280;62146;53.232;-1.304;2023-05-01T12:25:55;100643.66;;;18.45;100.00
73817;BME280;62146;53.232;-1.304;2023-05-01T12:28:22;100634.13;;;18.57;100.00
73817;BME280;62146;53.232;-1.304;2023-05-01T12:30:50;100636.34;;;18.50;100.00
73817;BME280;62146;53.232;-1.304;2023-05-01T12:33:21;100641.94;;;18.54;100.00
73817;BME280;62146;53.232;-1.304;2023-05-01T12:35:48;100640.13;;;18.50;100.00
73817;BME280;62146;53.232;-1.304;2023-05-01T12:38:17;100652.75;;;18.49;100.00
73817;BME280;62146;53.232;-1.304;2023-05-01T12:40:54;100642.25;;;18.52;100.00
73817;BME280;62146;53.232;-1.304;2023-05-01T12:43:29;100650.22;;;18.57;100.00
73817;BME280;62146;53.232;-1.304;2023-05-01T12:45:57;100649.59;;;18.65;100.00
73817;BME280;62146;53.232;-1.304;2023-05-01T12:48:23;100651.50;;;18.65;100.00
73817;BME280;62146;53.232;-1.304;2023-05-01T12:50:50;100644.47;;;18.69;100.00
73817;BME280;62146;53.232;-1.304;2023-05-01T12:53:24;100654.94;;;18.70;100.00
73817;BME280;62146;53.232;-1.304;2023-05-01T12:55:54;100669.50;;;18.64;100.00
73817;BME280;62146;53.232;-1.304;2023-05-01T12:58:22;100664.69;;;18.61;100.00
73817;BME280;62146;53.232;-1.304;2023-05-01T13:00:53;100676.03;;;18.58;100.00
73817;BME280;62146;53.232;-1.304;2023-05-01T13:03:25;100680.16;;;18.51;100.00
73817;BME280;62146;53.232;-1.304;2023-05-01T13:05:57;100675.84;;;18.50;100.00
73817;BME280;62146;53.232;-1.304;2023-05-01T13:08:32;100680.16;;;18.46;100.00